createdAt,value
2022-12-28T00:01:45.572Z,4.94
2022-12-28T00:04:15.459Z,4.97
2022-12-28T00:06:42.486Z,5.00
2022-12-28T00:09:12.110Z,5.03
2022-12-28T00:11:39.475Z,5.06
2022-12-28T00:14:06.439Z,5.08
2022-12-28T00:16:41.771Z,5.11
2022-12-28T00:19:16.651Z,5.12
2022-12-28T00:21:45.311Z,5.15
2022-12-28T00:24:20.721Z,5.16
2022-12-28T00:26:47.732Z,5.16
2022-12-28T00:29:15.186Z,5.16
2022-12-28T00:31:42.468Z,5.16
2022-12-28T00:34:09.412Z,5.16
2022-12-28T00:37:11.143Z,5.16
2022-12-28T00:39:23.212Z,5.17
2022-12-28T00:41:50.177Z,5.18
2022-12-28T00:44:17.123Z,5.18
2022-12-28T00:46:44.045Z,5.19
2022-12-28T00:49:11.026Z,5.20
2022-12-28T00:51:38.011Z,5.19
2022-12-28T00:54:04.978Z,5.19
2022-12-28T00:56:31.886Z,5.20
2022-12-28T00:59:00.027Z,5.20
2022-12-28T01:01:28.895Z,5.21
2022-12-28T01:03:57.485Z,5.23
2022-12-28T01:06:25.454Z,5.24
2022-12-28T01:08:52.407Z,5.26
2022-12-28T01:11:26.153Z,5.27
2022-12-28T01:13:55.525Z,5.28
2022-12-28T01:16:26.345Z,5.28
2022-12-28T01:18:57.215Z,5.28
2022-12-28T01:21:27.805Z,5.28
2022-12-28T01:23:59.382Z,5.27
2022-12-28T01:26:27.534Z,5.26
2022-12-28T01:28:54.602Z,5.28
2022-12-28T01:31:22.569Z,5.28
2022-12-28T01:33:49.559Z,5.25
2022-12-28T01:36:22.912Z,5.20
2022-12-28T01:38:55.618Z,5.19
2022-12-28T01:41:23.798Z,5.18
2022-12-28T01:43:53.707Z,5.18
2022-12-28T01:46:41.250Z,5.15
2022-12-28T01:49:37.372Z,5.13
2022-12-28T01:52:24.997Z,5.09
2022-12-28T01:55:23.840Z,5.03
2022-12-28T01:58:06.429Z,4.95
2022-12-28T02:00:35.036Z,4.86
2022-12-28T02:03:09.958Z,4.76
2022-12-28T02:05:44.407Z,4.69
2022-12-28T02:08:20.452Z,4.63
2022-12-28T02:10:47.900Z,4.57
2022-12-28T02:13:16.751Z,4.53
2022-12-28T02:15:45.361Z,4.50
2022-12-28T02:18:14.585Z,4.47
2022-12-28T02:20:51.942Z,4.46
2022-12-28T02:24:18.640Z,4.45
2022-12-28T02:28:24.401Z,4.43
2022-12-28T02:33:21.105Z,4.42
2022-12-28T02:35:27.428Z,4.41
2022-12-28T02:39:10.980Z,4.39
2022-12-28T02:46:13.163Z,4.38
2022-12-28T02:49:37.558Z,4.38
2022-12-28T02:52:39.723Z,4.38
2022-12-28T02:56:17.433Z,4.37
2022-12-28T02:59:06.211Z,4.37
2022-12-28T03:06:07.567Z,4.34
2022-12-28T03:09:47.813Z,4.32
2022-12-28T03:13:43.754Z,4.30
2022-12-28T03:17:05.083Z,4.24
2022-12-28T03:20:15.962Z,4.20
2022-12-28T03:23:47.367Z,4.16
2022-12-28T03:27:04.792Z,4.15
2022-12-28T03:30:09.986Z,4.14
2022-12-28T03:32:52.057Z,4.12
2022-12-28T03:36:13.017Z,4.10
2022-12-28T03:39:38.368Z,4.09
2022-12-28T03:49:51.093Z,4.06
2022-12-28T03:56:52.610Z,4.02
2022-12-28T03:59:49.977Z,3.99
2022-12-28T04:03:05.100Z,3.96
2022-12-28T04:09:46.034Z,3.91
2022-12-28T04:16:55.793Z,3.87
2022-12-28T04:20:18.947Z,3.87
2022-12-28T04:23:40.433Z,3.85
2022-12-28T04:27:12.920Z,3.84
2022-12-28T04:30:55.252Z,3.79
2022-12-28T04:34:29.332Z,3.76
2022-12-28T04:37:16.262Z,3.76
2022-12-28T04:40:24.375Z,3.77
2022-12-28T04:43:28.291Z,3.74
2022-12-28T04:47:30.417Z,3.74
2022-12-28T04:50:46.375Z,3.75
2022-12-28T04:53:57.272Z,3.77
2022-12-28T04:57:03.892Z,3.80
2022-12-28T05:00:14.765Z,3.80
2022-12-28T05:03:11.812Z,3.81
2022-12-28T05:05:44.533Z,3.81
2022-12-28T05:08:22.041Z,3.82
2022-12-28T05:11:30.201Z,3.82
2022-12-28T05:14:37.281Z,3.80
2022-12-28T05:18:02.859Z,3.82
2022-12-28T05:20:43.757Z,3.84
2022-12-28T05:23:15.343Z,3.86
2022-12-28T05:26:20.276Z,3.88
2022-12-28T05:29:23.029Z,3.92
2022-12-28T05:32:10.610Z,3.95
2022-12-28T05:39:13.609Z,4.03
2022-12-28T05:42:12.688Z,4.06
2022-12-28T05:44:53.191Z,4.09
2022-12-28T05:47:52.502Z,4.12
2022-12-28T05:50:48.389Z,4.16
2022-12-28T05:53:57.069Z,4.18
2022-12-28T05:56:48.912Z,4.22
2022-12-28T05:59:55.814Z,4.25
2022-12-28T06:02:38.513Z,4.29
2022-12-28T06:05:43.719Z,4.31
2022-12-28T06:08:36.321Z,4.34
2022-12-28T06:14:31.591Z,4.39
2022-12-28T06:17:43.041Z,4.40
2022-12-28T06:23:38.862Z,4.47
2022-12-28T06:26:41.043Z,4.50
2022-12-28T06:29:38.035Z,4.52
2022-12-28T06:36:33.996Z,4.60
2022-12-28T06:39:37.256Z,4.67
2022-12-28T06:42:28.357Z,4.71
2022-12-28T06:45:18.944Z,4.74
2022-12-28T06:48:16.640Z,4.74
2022-12-28T06:51:01.557Z,4.71
2022-12-28T06:57:25.164Z,4.64
2022-12-28T07:04:02.478Z,4.58
2022-12-28T07:07:04.314Z,4.55
2022-12-28T07:10:24.563Z,4.52
2022-12-28T07:13:01.325Z,4.46
2022-12-28T07:15:59.806Z,4.42
2022-12-28T07:19:01.639Z,4.41
2022-12-28T07:22:14.893Z,4.42
2022-12-28T07:25:31.698Z,4.46
2022-12-28T07:28:28.145Z,4.48
2022-12-28T07:31:27.481Z,4.53
2022-12-28T07:34:47.546Z,4.59
2022-12-28T07:41:13.798Z,4.69
2022-12-28T07:43:54.846Z,4.74
2022-12-28T07:46:48.646Z,4.77
2022-12-28T07:49:53.886Z,4.79
2022-12-28T07:52:42.161Z,4.81
2022-12-28T07:55:39.540Z,4.84
2022-12-28T08:01:32.605Z,4.90
2022-12-28T08:04:12.718Z,4.90
2022-12-28T08:06:49.045Z,4.91
2022-12-28T08:09:27.723Z,4.91
2022-12-28T08:12:05.094Z,4.92
2022-12-28T08:14:49.075Z,4.93
2022-12-28T08:17:55.165Z,4.95
2022-12-28T08:21:00.464Z,4.97
2022-12-28T08:23:37.462Z,5.02
2022-12-28T08:26:23.616Z,5.08
2022-12-28T08:29:08.212Z,5.19
2022-12-28T08:31:45.845Z,5.29
2022-12-28T08:34:36.782Z,5.36
2022-12-28T08:37:34.111Z,5.39
2022-12-28T08:40:14.261Z,5.41
2022-12-28T08:42:45.744Z,5.43
2022-12-28T08:45:22.105Z,5.47
2022-12-28T08:47:55.585Z,5.54
2022-12-28T08:50:31.921Z,5.58
2022-12-28T08:53:11.712Z,5.67
2022-12-28T08:56:06.080Z,5.74
2022-12-28T08:58:54.055Z,5.80
2022-12-28T09:01:35.943Z,5.89
2022-12-28T09:04:35.398Z,5.94
2022-12-28T09:14:52.981Z,6.12
2022-12-28T09:17:35.713Z,6.15
2022-12-28T09:20:20.593Z,6.16
2022-12-28T09:26:24.407Z,6.20
2022-12-28T09:29:51.919Z,6.21
2022-12-28T09:32:44.644Z,6.27
2022-12-28T09:38:49.675Z,6.26
2022-12-28T09:41:30.710Z,6.31
2022-12-28T09:44:30.665Z,6.39
2022-12-28T09:47:44.213Z,6.45
2022-12-28T09:50:34.112Z,6.53
2022-12-28T09:53:33.093Z,6.59
2022-12-28T09:56:28.699Z,6.69
2022-12-28T09:59:07.319Z,6.73
2022-12-28T10:04:52.633Z,6.84
2022-12-28T10:07:43.939Z,6.85
2022-12-28T10:13:54.526Z,6.95
2022-12-28T10:16:44.126Z,7.00
2022-12-28T10:19:40.901Z,7.04
2022-12-28T10:22:25.962Z,7.06
2022-12-28T10:25:32.439Z,7.08
2022-12-28T10:28:34.575Z,7.14
2022-12-28T10:31:46.666Z,7.18
2022-12-28T10:34:34.450Z,7.20
2022-12-28T10:37:50.910Z,7.20
2022-12-28T10:40:42.393Z,7.20
2022-12-28T10:46:48.513Z,7.16
2022-12-28T10:49:19.428Z,7.17
2022-12-28T10:52:25.900Z,7.17
2022-12-28T10:55:52.087Z,7.21
2022-12-28T10:58:33.473Z,7.26
2022-12-28T11:01:28.409Z,7.28
2022-12-28T11:07:10.412Z,7.41
2022-12-28T11:09:43.245Z,7.48
2022-12-28T11:12:34.880Z,7.55
2022-12-28T11:15:28.986Z,7.62
2022-12-28T11:18:23.449Z,7.69
2022-12-28T11:21:06.159Z,7.76
2022-12-28T11:24:06.231Z,7.83
2022-12-28T11:30:20.220Z,7.87
2022-12-28T11:33:19.923Z,7.87
2022-12-28T11:36:36.615Z,7.85
2022-12-28T11:39:55.104Z,7.91
2022-12-28T11:46:11.430Z,8.03
2022-12-28T11:49:08.589Z,8.00
2022-12-28T11:51:46.991Z,7.99
2022-12-28T11:55:28.621Z,7.96
2022-12-28T11:58:59.023Z,7.91
2022-12-28T12:01:48.245Z,7.89
2022-12-28T12:04:33.033Z,7.91
2022-12-28T12:07:30.730Z,7.93
2022-12-28T12:10:43.954Z,7.92
2022-12-28T12:14:03.956Z,7.90
2022-12-28T12:17:16.370Z,7.89
2022-12-28T12:20:49.208Z,7.88
2022-12-28T12:24:18.756Z,7.91
2022-12-28T12:27:12.198Z,8.00
2022-12-28T12:30:06.410Z,8.16
2022-12-28T12:32:53.333Z,8.22
2022-12-28T12:35:37.380Z,8.27
2022-12-28T12:38:37.357Z,8.30
2022-12-28T12:42:00.526Z,8.34
2022-12-28T12:44:44.459Z,8.39
2022-12-28T12:47:45.574Z,8.45
2022-12-28T12:51:34.357Z,8.54
2022-12-28T12:55:25.767Z,8.72
2022-12-28T12:58:34.794Z,8.84
2022-12-28T13:01:56.630Z,8.92
2022-12-28T13:05:07.385Z,9.01
2022-12-28T13:07:57.981Z,9.12
2022-12-28T13:10:59.143Z,9.22
2022-12-28T13:13:56.279Z,9.30
2022-12-28T13:16:49.032Z,9.33
2022-12-28T13:19:41.975Z,9.31
2022-12-28T13:22:42.019Z,9.23
2022-12-28T13:25:45.317Z,9.16
2022-12-28T13:31:51.613Z,9.01
2022-12-28T13:35:17.000Z,8.91
2022-12-28T13:38:48.056Z,8.84
2022-12-28T13:42:20.640Z,8.77
2022-12-28T13:48:22.223Z,8.64
2022-12-28T13:51:21.777Z,8.58
2022-12-28T13:54:17.346Z,8.49
2022-12-28T13:57:36.047Z,8.44
2022-12-28T14:00:09.531Z,8.38
2022-12-28T14:03:08.691Z,8.34
2022-12-28T14:06:25.084Z,8.26
2022-12-28T14:09:10.073Z,8.20
2022-12-28T14:12:04.457Z,8.14
2022-12-28T14:15:02.315Z,8.10
2022-12-28T14:21:04.132Z,7.98
2022-12-28T14:24:07.395Z,7.92
2022-12-28T14:26:54.969Z,7.87
2022-12-28T14:30:21.440Z,7.82
2022-12-28T14:32:58.167Z,7.78
2022-12-28T14:36:16.181Z,7.72
2022-12-28T14:42:04.853Z,7.65
2022-12-28T14:44:56.257Z,7.62
2022-12-28T14:47:39.914Z,7.60
2022-12-28T14:50:54.598Z,7.61
2022-12-28T14:53:40.153Z,7.64
2022-12-28T14:56:34.418Z,7.68
2022-12-28T14:59:22.645Z,7.71
2022-12-28T15:01:51.104Z,7.77
2022-12-28T15:05:03.197Z,7.84
2022-12-28T15:07:56.159Z,7.91
2022-12-28T15:13:50.555Z,7.98
2022-12-28T15:16:41.342Z,7.97
2022-12-28T15:19:36.358Z,7.94
2022-12-28T15:22:48.340Z,7.91
2022-12-28T15:29:39.509Z,7.85
2022-12-28T15:32:20.890Z,7.81
2022-12-28T15:35:03.489Z,7.77
2022-12-28T15:37:42.941Z,7.74
2022-12-28T15:40:27.116Z,7.73
2022-12-28T15:43:06.260Z,7.71
2022-12-28T15:46:04.810Z,7.72
2022-12-28T15:48:56.743Z,7.74
2022-12-28T15:51:39.357Z,7.78
2022-12-28T15:54:58.781Z,7.85
2022-12-28T15:57:45.691Z,7.91
2022-12-28T16:00:24.351Z,7.97
2022-12-28T16:03:48.973Z,8.04
2022-12-28T16:06:27.607Z,8.09
2022-12-28T16:09:04.314Z,8.12
2022-12-28T16:11:38.123Z,8.13
2022-12-28T16:14:15.883Z,8.11
2022-12-28T16:16:49.871Z,8.09
2022-12-28T16:19:21.286Z,8.07
2022-12-28T16:21:59.302Z,8.07
2022-12-28T16:24:35.090Z,8.06
2022-12-28T16:27:14.669Z,8.04
2022-12-28T16:29:52.639Z,8.03
2022-12-28T16:32:24.529Z,8.06
2022-12-28T16:35:06.842Z,8.10
2022-12-28T16:37:43.609Z,8.16
2022-12-28T16:40:15.585Z,8.21
2022-12-28T16:42:46.379Z,8.26
2022-12-28T16:45:14.786Z,8.31
2022-12-28T16:47:45.343Z,8.36
2022-12-28T16:50:17.497Z,8.39
2022-12-28T16:52:52.209Z,8.41
2022-12-28T16:55:25.992Z,8.44
2022-12-28T16:58:06.589Z,8.48
2022-12-28T17:00:45.783Z,8.50
2022-12-28T17:03:26.030Z,8.53
2022-12-28T17:05:59.038Z,8.54
2022-12-28T17:08:30.355Z,8.54
2022-12-28T17:10:59.353Z,8.56
2022-12-28T17:13:35.425Z,8.56
2022-12-28T17:16:11.505Z,8.55
2022-12-28T17:18:44.639Z,8.54
2022-12-28T17:21:31.489Z,8.48
2022-12-28T17:24:19.262Z,8.41
2022-12-28T17:28:33.046Z,8.34
2022-12-28T17:29:50.299Z,8.27
2022-12-28T17:32:25.856Z,8.22
2022-12-28T17:34:53.946Z,8.19
2022-12-28T17:37:24.985Z,8.17
2022-12-28T17:40:02.524Z,8.16
2022-12-28T17:42:37.370Z,8.14
2022-12-28T17:45:11.759Z,8.15
2022-12-28T17:47:48.183Z,8.15
2022-12-28T17:50:20.544Z,8.17
2022-12-28T17:52:56.815Z,8.18
2022-12-28T17:55:27.881Z,8.21
2022-12-28T17:58:01.555Z,8.23
2022-12-28T18:00:31.551Z,8.25
2022-12-28T18:03:02.088Z,8.29
2022-12-28T18:05:36.110Z,8.30
2022-12-28T18:08:09.708Z,8.31
2022-12-28T18:10:40.448Z,8.32
2022-12-28T18:13:11.180Z,8.32
2022-12-28T18:15:42.731Z,8.30
2022-12-28T18:18:17.764Z,8.27
2022-12-28T18:20:57.215Z,8.24
2022-12-28T18:23:56.405Z,8.23
2022-12-28T18:26:31.473Z,8.22
2022-12-28T18:29:09.243Z,8.23
2022-12-28T18:31:46.046Z,8.24
2022-12-28T18:34:34.978Z,8.25
2022-12-28T18:37:12.059Z,8.29
2022-12-28T18:39:45.002Z,8.32
2022-12-28T18:42:20.315Z,8.33
2022-12-28T18:44:48.115Z,8.35
2022-12-28T18:47:24.967Z,8.35
2022-12-28T18:49:55.444Z,8.33
2022-12-28T18:52:29.405Z,8.31
2022-12-28T18:55:00.505Z,8.30
2022-12-28T18:57:31.031Z,8.28
2022-12-28T19:00:06.017Z,8.28
2022-12-28T19:02:44.545Z,8.27
2022-12-28T19:05:15.777Z,8.26
2022-12-28T19:07:49.077Z,8.23
2022-12-28T19:10:17.822Z,8.22
2022-12-28T19:12:45.402Z,8.18
2022-12-28T19:15:13.032Z,8.14
2022-12-28T19:17:46.118Z,8.12
2022-12-28T19:20:26.353Z,8.06
2022-12-28T19:23:11.566Z,8.02
2022-12-28T19:25:52.481Z,7.98
2022-12-28T19:28:29.776Z,7.94
2022-12-28T19:31:13.109Z,7.91
2022-12-28T19:33:43.974Z,7.86
2022-12-28T19:36:44.167Z,7.83
2022-12-28T19:39:32.045Z,7.80
2022-12-28T19:42:03.361Z,7.79
2022-12-28T19:44:43.979Z,7.77
2022-12-28T19:47:17.722Z,7.77
2022-12-28T19:50:05.186Z,7.76
2022-12-28T19:52:48.112Z,7.75
2022-12-28T19:55:29.922Z,7.76
2022-12-28T19:58:01.455Z,7.76
2022-12-28T20:00:46.620Z,7.75
2022-12-28T20:03:46.579Z,7.75
2022-12-28T20:06:46.684Z,7.72
2022-12-28T20:09:18.446Z,7.75
2022-12-28T20:12:04.814Z,7.76
2022-12-28T20:14:54.377Z,7.75
2022-12-28T20:17:38.270Z,7.75
2022-12-28T20:20:26.599Z,7.73
2022-12-28T20:27:24.858Z,7.71
2022-12-28T20:30:23.864Z,7.71
2022-12-28T20:33:10.005Z,7.70
2022-12-28T20:35:52.375Z,7.71
2022-12-28T20:38:37.113Z,7.70
2022-12-28T20:41:51.351Z,7.67
2022-12-28T20:44:48.561Z,7.67
2022-12-28T20:47:41.100Z,7.66
2022-12-28T20:50:10.181Z,7.65
2022-12-28T20:53:12.623Z,7.64
2022-12-28T20:56:08.669Z,7.62
2022-12-28T20:58:54.565Z,7.62
2022-12-28T21:01:38.765Z,7.62
2022-12-28T21:04:13.500Z,7.63
2022-12-28T21:07:08.984Z,7.65
2022-12-28T21:13:44.516Z,7.70
2022-12-28T21:16:22.176Z,7.72
2022-12-28T21:19:13.561Z,7.74
2022-12-28T21:22:13.624Z,7.74
2022-12-28T21:24:48.633Z,7.76
2022-12-28T21:27:35.324Z,7.78
2022-12-28T21:30:23.010Z,7.79
2022-12-28T21:36:28.595Z,7.78
2022-12-28T21:39:23.791Z,7.81
2022-12-28T21:42:18.295Z,7.82
2022-12-28T21:44:55.501Z,7.83
2022-12-28T21:47:31.434Z,7.83
2022-12-28T21:50:06.709Z,7.82
2022-12-28T21:52:46.315Z,7.78
2022-12-28T21:55:48.776Z,7.77
2022-12-28T21:58:40.339Z,7.78
2022-12-28T22:01:56.570Z,7.78
2022-12-28T22:05:02.656Z,7.77
2022-12-28T22:08:19.495Z,7.78
2022-12-28T22:11:39.878Z,7.79
2022-12-28T22:14:15.568Z,7.82
2022-12-28T22:16:43.231Z,7.86
2022-12-28T22:19:23.138Z,7.89
2022-12-28T22:21:50.168Z,7.95
2022-12-28T22:24:17.093Z,7.98
2022-12-28T22:26:44.019Z,8.02
2022-12-28T22:29:10.945Z,8.07
2022-12-28T22:31:39.784Z,8.11
2022-12-28T22:34:07.683Z,8.14
2022-12-28T22:36:34.645Z,8.16
2022-12-28T22:39:01.518Z,8.17
2022-12-28T22:41:28.459Z,8.21
2022-12-28T22:43:55.369Z,8.24
2022-12-28T22:46:22.537Z,8.30
2022-12-28T22:48:50.054Z,8.31
2022-12-28T22:51:17.160Z,8.36
2022-12-28T22:53:44.350Z,8.37
2022-12-28T22:56:20.712Z,8.38
2022-12-28T22:58:48.445Z,8.37
2022-12-28T23:01:19.496Z,8.34
2022-12-28T23:03:48.328Z,8.32
2022-12-28T23:06:18.927Z,8.31
2022-12-28T23:08:46.516Z,8.31
2022-12-28T23:11:36.096Z,8.31
2022-12-28T23:14:43.101Z,8.31
2022-12-28T23:17:18.176Z,8.28
2022-12-28T23:20:07.423Z,8.27
2022-12-28T23:23:12.243Z,8.26
2022-12-28T23:26:00.830Z,8.24
2022-12-28T23:28:28.949Z,8.23
2022-12-28T23:31:00.140Z,8.23
2022-12-28T23:33:29.579Z,8.23
2022-12-28T23:36:04.034Z,8.24
2022-12-28T23:38:34.611Z,8.24
2022-12-28T23:41:26.957Z,8.21
2022-12-28T23:43:56.820Z,8.20
2022-12-28T23:46:26.516Z,8.15
2022-12-28T23:48:56.290Z,8.11
2022-12-28T23:51:26.059Z,8.07
2022-12-28T23:53:54.059Z,8.06
2022-12-28T23:56:23.744Z,8.05
2022-12-28T23:58:53.770Z,8.05
